ADDS METAR Data INFO
IDs: Format: Raw Decoded Include TAF

Data at: 0500 UTC 25 May 2018

KF17 250455Z AUTO 00000KT 10SM CLR 22/21 A3005 RMK AO2 T02160209
KF17 250435Z AUTO 00000KT 10SM CLR 22/21 A3005 RMK AO2 T02160208
KF17 250415Z AUTO 00000KT 10SM CLR 22/21 A3006 RMK AO2 T02200211
KF17 250355Z AUTO 00000KT 10SM CLR 22/21 A3005 RMK AO2 T02220209
KF17 250335Z AUTO 00000KT 10SM CLR 23/21 A3005 RMK AO2 T02250210
KF17 250315Z AUTO 00000KT 10SM CLR 23/21 A3004 RMK AO2 T02290210
KF17 250255Z AUTO 00000KT 10SM CLR 23/21 A3004 RMK AO2 T02280210
KF17 250235Z AUTO 00000KT 10SM CLR 23/21 A3002 RMK AO2 T02340210
KF17 250215Z AUTO 00000KT 10SM CLR 24/20 A3002 RMK AO2 T02420204
KF17 250155Z AUTO 00000KT 10SM CLR 24/21 A3002 RMK AO2 T02440211
KF17 250135Z AUTO 00000KT 10SM CLR 25/20 A3002 RMK AO2 T02540198
KF17 250115Z AUTO 10003KT 10SM CLR 27/20 A3002 RMK AO2 T02660198
KF17 250055Z AUTO 00000KT 10SM CLR 27/20 A3001 RMK AO2 T02740197
KF17 250035Z AUTO 07003KT 10SM CLR 29/20 A3001 RMK AO2 T02850198
KF17 250015Z AUTO 08003KT 10SM CLR 29/19 A3001 RMK AO2 T02920189
KF17 242355Z AUTO 09004KT 10SM CLR 30/18 A3001 RMK AO2 T02960179 10312 20279
KF17 242335Z AUTO 10004KT 10SM CLR 30/18 A3001 RMK AO2 T03000183
KF17 242315Z AUTO 09006KT 10SM SCT110 30/18 A3001 RMK AO2 T03040177
KF17 242255Z AUTO 10005KT 10SM BKN110 31/18 A3001 RMK AO2 T03060182
KF17 242235Z AUTO 06004KT 10SM CLR 31/19 A3002 RMK AO2 T03090185
KF17 242215Z AUTO 10003KT 10SM CLR 31/18 A3002 RMK AO2 T03050182
KF17 242155Z AUTO 09005KT 10SM CLR 30/18 A3002 RMK AO2 T03040179
KF17 242135Z AUTO 11006KT 10SM CLR 30/18 A3002 RMK AO2 T03000180
KF17 242115Z AUTO 09004KT 10SM SCT050 30/18 A3003 RMK AO2 T02950182
KF17 242055Z AUTO 09005KT 10SM SCT050 SCT070 29/19 A3004 RMK AO2 T02940194
KF17 242035Z AUTO 08008KT 10SM SCT043 SCT055 BKN070 28/19 A3005 RMK AO2 T02820188
KF17 242015Z AUTO 06010G15KT 10SM SCT041 BKN055 30/19 A3005 RMK AO2 T02950192
KF17 241955Z AUTO 18004KT 10SM SCT050 SCT110 30/18 A3005 RMK AO2 T03030176
KF17 241935Z AUTO 16004KT 10SM SCT050 SCT060 BKN085 30/18 A3005 RMK AO2 T03000177
KF17 241915Z AUTO 10SM SCT049 SCT060 BKN085 30/18 A3006 RMK AO2 T03020180
KF17 241855Z AUTO 03003KT 10SM SCT050 SCT110 31/18 A3006 RMK AO2 T03090181
KF17 241835Z AUTO 07004KT 10SM SCT050 BKN110 30/18 A3007 RMK AO2 T03040179
KF17 241815Z AUTO 00000KT 10SM CLR 31/17 A3008 RMK AO2 T03070174
KF17 241755Z AUTO 10004KT 10SM SCT044 30/18 A3009 RMK AO2 T02950176 10304 20186
KF17 241735Z AUTO 12004KT 10SM SCT044 30/18 A3009 RMK AO2 T03000176
KF17 241715Z AUTO 12003KT 10SM CLR 29/18 A3010 RMK AO2 T02920176
KF17 241655Z AUTO 10003KT 10SM CLR 29/18 A3010 RMK AO2 T02890176
KF17 241635Z AUTO 14003KT 10SM CLR 29/17 A3011 RMK AO2 T02900174
KF17 241615Z AUTO 03004KT 10SM CLR 29/18 A3010 RMK AO2 T02910181
KF17 241555Z AUTO 34003KT 10SM CLR 28/18 A3011 RMK AO2 T02820179
KF17 241535Z AUTO 00000KT 10SM CLR 28/18 A3011 RMK AO2 T02770176
KF17 241515Z AUTO 00000KT 10SM CLR 27/19 A3011 RMK AO2 T02720187
KF17 241455Z AUTO 00000KT 10SM CLR 27/20 A3011 RMK AO2 T02670199
KF17 241435Z AUTO 00000KT 10SM CLR 26/20 A3011 RMK AO2 T02580201
KF17 241355Z AUTO 00000KT 10SM CLR 24/20 A3011 RMK AO2 T02430203
KF17 241335Z AUTO 00000KT 10SM CLR 23/21 A3011 RMK AO2 T02330205
KF17 241315Z AUTO 00000KT 10SM CLR 23/20 A3011 RMK AO2 T02250204
KF17 241255Z AUTO 00000KT 10SM CLR 21/20 A3010 RMK AO2 T02110201
KF17 241235Z AUTO 00000KT 10SM CLR 20/20 A3010 RMK AO2 T02030195
KF17 241215Z AUTO 00000KT 10SM CLR 19/19 A3010 RMK AO2 T01940186
KF17 241155Z AUTO 00000KT 10SM CLR 19/18 A3010 RMK AO2 T01850177 10200 20182
KF17 241135Z AUTO 00000KT 10SM CLR 18/18 A3009 RMK AO2 T01840176
KF17 241115Z AUTO 00000KT 10SM CLR 18/18 A3008 RMK AO2 T01840176
KF17 241055Z AUTO 00000KT 10SM CLR 19/18 A3007 RMK AO2 T01850177
KF17 241035Z AUTO 00000KT 10SM CLR 19/18 A3007 RMK AO2 T01850177
KF17 241015Z AUTO 00000KT 10SM CLR 19/18 A3007 RMK AO2 T01850177
KF17 240955Z AUTO 00000KT 7SM CLR 19/18 A3007 RMK AO2 T01870180
KF17 240935Z AUTO 00000KT 10SM CLR 19/18 A3007 RMK AO2 T01860179
KF17 240915Z AUTO 00000KT 10SM CLR 19/18 A3007 RMK AO2 T01890181
KF17 240855Z AUTO 00000KT 10SM CLR 19/18 A3007 RMK AO2 T01900182
KF17 240835Z AUTO 00000KT 10SM SCT060 19/19 A3008 RMK AO2 T01930185
KF17 240815Z AUTO 00000KT 10SM BKN060 20/19 A3008 RMK AO2 T01960189
KF17 240755Z AUTO 00000KT 10SM BKN060 20/19 A3008 RMK AO2 T01950186
KF17 240735Z AUTO 00000KT 10SM SCT060 19/19 A3008 RMK AO2 T01930185
KF17 240715Z AUTO 00000KT 10SM SCT060 20/19 A3009 RMK AO2 T01980190
KF17 240655Z AUTO 00000KT 10SM CLR 20/19 A3009 RMK AO2 T01970190
KF17 240635Z AUTO 00000KT 10SM CLR 20/19 A3009 RMK AO2 T01970190
KF17 240615Z AUTO 00000KT 10SM CLR 20/19 A3009 RMK AO2 T01970190
KF17 240555Z AUTO 00000KT 10SM CLR 20/19 A3010 RMK AO2 T02000192 10249 20197 403300191
KF17 240535Z AUTO 00000KT 10SM CLR 20/19 A3010 RMK AO2 T02010194
KF17 240515Z AUTO 00000KT 10SM CLR 21/20 A3010 RMK AO2 T02070200
KF17 240455Z AUTO 00000KT 10SM CLR 21/20 A3010 RMK AO2 T02060198
KF17 240435Z AUTO 00000KT 10SM CLR 20/19 A3011 RMK AO2 T01980190
KF17 240415Z AUTO 00000KT 10SM CLR 20/19 A3010 RMK AO2 T02010193
KF17 240355Z AUTO 00000KT 10SM CLR 20/19 A3009 RMK AO2 T02010194
KF17 240335Z AUTO 00000KT 10SM CLR 21/20 A3008 RMK AO2 T02070199
KF17 240315Z AUTO 00000KT 10SM CLR 21/20 A3007 RMK AO2 T02050198
KF17 240255Z AUTO 00000KT 10SM CLR 21/20 A3006 RMK AO2 T02100202
KF17 240235Z AUTO 00000KT 10SM CLR 21/20 A3005 RMK AO2 T02110202
KF17 240215Z AUTO 00000KT 10SM CLR 22/20 A3005 RMK AO2 T02150202
KF17 240155Z AUTO 00000KT 10SM CLR 22/20 A3004 RMK AO2 T02210200
KF17 240135Z AUTO 00000KT 10SM CLR 22/20 A3005 RMK AO2 T02220201
KF17 240115Z AUTO 33003KT 10SM CLR 22/20 A3004 RMK AO2 T02230201
KF17 240055Z AUTO 00000KT 10SM CLR 24/20 A3004 RMK AO2 T02350196
KF17 240035Z AUTO 00000KT 10SM CLR 24/19 A3004 RMK AO2 T02370192
KF17 240015Z AUTO 07003KT 10SM CLR 24/19 A3002 RMK AO2 T02420191
KF17 232355Z AUTO 00000KT 10SM CLR 25/19 A3003 RMK AO2 T02500185 10330 20250
KF17 232335Z AUTO 00000KT 10SM CLR 25/18 A3002 RMK AO2 T02510180
KF17 232315Z AUTO 21004KT 10SM CLR 25/18 A3002 RMK AO2 T02540180
KF17 232255Z AUTO 22005KT 10SM CLR 26/18 A3002 RMK AO2 T02590184
KF17 232235Z AUTO 21007KT 190V250 10SM CLR 27/18 A3002 RMK AO2 T02670180
KF17 232215Z AUTO 22009KT 10SM SCT070 SCT080 27/18 A3001 RMK AO2 T02680183
KF17 232155Z AUTO 21006KT 10SM BKN070 BKN080 28/18 A3002 RMK AO2 T02810184
KF17 232135Z AUTO 15005KT 10SM CLR 33/15 A3001 RMK AO2 T03290148
KF17 232115Z AUTO 09006KT 10SM CLR 33/14 A3001 RMK AO2 T03300142
KF17 232055Z AUTO 00000KT 10SM CLR 32/14 A3002 RMK AO2 T03210142
KF17 232035Z AUTO 08003KT 10SM CLR 32/15 A3002 RMK AO2 T03240153
KF17 232015Z AUTO 10007KT 10SM CLR 33/17 A3002 RMK AO2 T03250174
KF17 231955Z AUTO 10005KT 10SM CLR 32/16 A3003 RMK AO2 T03190162
KF17 231935Z AUTO 12008KT 10SM SCT050 32/17 A3003 RMK AO2 T03190165
KF17 231915Z AUTO 11003KT 10SM CLR 31/18 A3004 RMK AO2 T03110177
KF17 231855Z AUTO 09004KT 10SM SCT041 31/18 A3005 RMK AO2 T03080178
KF17 231835Z AUTO 12005KT 10SM SCT041 32/18 A3006 RMK AO2 T03160179
KF17 231815Z AUTO 13003KT 10SM SCT041 SCT048 SCT060 30/19 A3006 RMK AO2 T03040188
KF17 231755Z AUTO 12005KT 10SM SCT041 SCT048 SCT060 30/19 A3007 RMK AO2 T02990193 10304 20195
KF17 231735Z AUTO 00000KT 10SM SCT037 SCT044 30/19 A3007 RMK AO2 T03040191
KF17 231715Z AUTO 00000KT 10SM SCT032 SCT040 30/20 A3008 RMK AO2 T02980201